sensor_id;sensor_type;location;lat;lon;timestamp;pressure;altitude;pressure_sealevel;temperature
49593;BMP280;35499;51.482;4.264;2023-08-17T00:01:20;101934.75;;;19.90
49593;BMP280;35499;51.482;4.264;2023-08-17T00:03:45;101932.16;;;19.89
49593;BMP280;35499;51.482;4.264;2023-08-17T00:06:10;101941.81;;;19.87
49593;BMP280;35499;51.482;4.264;2023-08-17T00:08:35;101942.72;;;19.86
49593;BMP280;35499;51.482;4.264;2023-08-17T00:11:01;101948.03;;;19.83
49593;BMP280;35499;51.482;4.264;2023-08-17T00:13:26;101949.09;;;19.77
49593;BMP280;35499;51.482;4.264;2023-08-17T00:15:51;101950.16;;;19.72
49593;BMP280;35499;51.482;4.264;2023-08-17T00:18:16;101950.25;;;19.69
49593;BMP280;35499;51.482;4.264;2023-08-17T00:20:42;101948.66;;;19.65
49593;BMP280;35499;51.482;4.264;2023-08-17T00:23:07;101947.13;;;19.58
49593;BMP280;35499;51.482;4.264;2023-08-17T00:25:32;101945.53;;;19.54
49593;BMP280;35499;51.482;4.264;2023-08-17T00:27:57;101949.13;;;19.51
49593;BMP280;35499;51.482;4.264;2023-08-17T00:30:22;101949.19;;;19.48
49593;BMP280;35499;51.482;4.264;2023-08-17T00:32:48;101947.59;;;19.44
49593;BMP280;35499;51.482;4.264;2023-08-17T00:35:13;101952.03;;;19.42
49593;BMP280;35499;51.482;4.264;2023-08-17T00:37:38;101953.81;;;19.40
49593;BMP280;35499;51.482;4.264;2023-08-17T00:40:04;101953.88;;;19.38
49593;BMP280;35499;51.482;4.264;2023-08-17T00:42:29;101949.59;;;19.37
49593;BMP280;35499;51.482;4.264;2023-08-17T00:44:54;101953.88;;;19.38
49593;BMP280;35499;51.482;4.264;2023-08-17T00:47:19;101956.47;;;19.38
49593;BMP280;35499;51.482;4.264;2023-08-17T00:49:45;101969.56;;;19.37
49593;BMP280;35499;51.482;4.264;2023-08-17T00:52:10;101966.09;;;19.36
49593;BMP280;35499;51.482;4.264;2023-08-17T00:54:35;101970.47;;;19.36
49593;BMP280;35499;51.482;4.264;2023-08-17T00:57:00;101956.53;;;19.37
49593;BMP280;35499;51.482;4.264;2023-08-17T00:59:26;101967.81;;;19.37
49593;BMP280;35499;51.482;4.264;2023-08-17T01:01:51;101960.81;;;19.38
49593;BMP280;35499;51.482;4.264;2023-08-17T01:04:17;101957.31;;;19.39
49593;BMP280;35499;51.482;4.264;2023-08-17T01:06:42;101953.00;;;19.38
49593;BMP280;35499;51.482;4.264;2023-08-17T01:09:07;101944.41;;;19.36
49593;BMP280;35499;51.482;4.264;2023-08-17T01:11:37;101941.81;;;19.36
49593;BMP280;35499;51.482;4.264;2023-08-17T01:14:19;101938.44;;;19.33
49593;BMP280;35499;51.482;4.264;2023-08-17T01:16:48;101944.72;;;19.27
49593;BMP280;35499;51.482;4.264;2023-08-17T01:19:18;101943.06;;;19.23
49593;BMP280;35499;51.482;4.264;2023-08-17T01:21:49;101938.84;;;19.21
49593;BMP280;35499;51.482;4.264;2023-08-17T01:24:15;101936.38;;;19.17
49593;BMP280;35499;51.482;4.264;2023-08-17T01:26:40;101935.53;;;19.16
49593;BMP280;35499;51.482;4.264;2023-08-17T01:29:05;101941.59;;;19.17
49593;BMP280;35499;51.482;4.264;2023-08-17T01:31:32;101938.16;;;19.15
49593;BMP280;35499;51.482;4.264;2023-08-17T01:34:03;101945.19;;;19.13
49593;BMP280;35499;51.482;4.264;2023-08-17T01:36:30;101935.69;;;19.10
49593;BMP280;35499;51.482;4.264;2023-08-17T01:38:56;101938.34;;;19.09
49593;BMP280;35499;51.482;4.264;2023-08-17T01:41:22;101940.94;;;19.09
49593;BMP280;35499;51.482;4.264;2023-08-17T01:43:47;101942.78;;;19.07
49593;BMP280;35499;51.482;4.264;2023-08-17T01:46:13;101936.75;;;19.05
49593;BMP280;35499;51.482;4.264;2023-08-17T01:48:40;101940.25;;;19.04
49593;BMP280;35499;51.482;4.264;2023-08-17T01:51:05;101928.22;;;19.00
49593;BMP280;35499;51.482;4.264;2023-08-17T01:53:31;101931.72;;;18.99
49593;BMP280;35499;51.482;4.264;2023-08-17T01:55:56;101931.72;;;18.99
49593;BMP280;35499;51.482;4.264;2023-08-17T01:58:21;101930.78;;;19.01
49593;BMP280;35499;51.482;4.264;2023-08-17T02:00:46;101933.31;;;19.03
49593;BMP280;35499;51.482;4.264;2023-08-17T02:03:11;101929.81;;;19.04
49593;BMP280;35499;51.482;4.264;2023-08-17T02:05:36;101929.81;;;19.04
49593;BMP280;35499;51.482;4.264;2023-08-17T02:08:02;101934.13;;;19.05
49593;BMP280;35499;51.482;4.264;2023-08-17T02:10:27;101930.69;;;19.04
49593;BMP280;35499;51.482;4.264;2023-08-17T02:12:52;101933.31;;;19.03
49593;BMP280;35499;51.482;4.264;2023-08-17T02:15:17;101931.66;;;19.02
49593;BMP280;35499;51.482;4.264;2023-08-17T02:17:42;101928.22;;;19.00
49593;BMP280;35499;51.482;4.264;2023-08-17T02:20:08;101931.72;;;18.99
49593;BMP280;35499;51.482;4.264;2023-08-17T02:22:34;101930.81;;;19.00
49593;BMP280;35499;51.482;4.264;2023-08-17T02:24:59;101928.22;;;19.00
49593;BMP280;35499;51.482;4.264;2023-08-17T02:27:24;101919.59;;;18.98
49593;BMP280;35499;51.482;4.264;2023-08-17T02:29:49;101928.31;;;18.97
49593;BMP280;35499;51.482;4.264;2023-08-17T02:32:15;101929.22;;;18.96
49593;BMP280;35499;51.482;4.264;2023-08-17T02:34:40;101925.75;;;18.96
49593;BMP280;35499;51.482;4.264;2023-08-17T02:37:05;101931.00;;;18.94
49593;BMP280;35499;51.482;4.264;2023-08-17T02:39:31;101926.69;;;18.93
49593;BMP280;35499;51.482;4.264;2023-08-17T02:41:56;101923.31;;;18.91
49593;BMP280;35499;51.482;4.264;2023-08-17T02:44:21;101927.66;;;18.91
49593;BMP280;35499;51.482;4.264;2023-08-17T02:46:46;101929.44;;;18.89
49593;BMP280;35499;51.482;4.264;2023-08-17T02:49:11;101926.91;;;18.87
49593;BMP280;35499;51.482;4.264;2023-08-17T02:51:37;101928.69;;;18.85
49593;BMP280;35499;51.482;4.264;2023-08-17T02:54:02;101930.47;;;18.83
49593;BMP280;35499;51.482;4.264;2023-08-17T02:56:27;101934.03;;;18.81
49593;BMP280;35499;51.482;4.264;2023-08-17T02:58:52;101928.88;;;18.80
49593;BMP280;35499;51.482;4.264;2023-08-17T03:01:18;101923.66;;;18.80
49593;BMP280;35499;51.482;4.264;2023-08-17T03:03:43;101934.03;;;18.81
49593;BMP280;35499;51.482;4.264;2023-08-17T03:06:09;101925.25;;;18.83
49593;BMP280;35499;51.482;4.264;2023-08-17T03:08:35;101926.03;;;18.87
49593;BMP280;35499;51.482;4.264;2023-08-17T03:11:00;101930.28;;;18.89
49593;BMP280;35499;51.482;4.264;2023-08-17T03:13:25;101925.94;;;18.90
49593;BMP280;35499;51.482;4.264;2023-08-17T03:15:51;101925.94;;;18.90
49593;BMP280;35499;51.482;4.264;2023-08-17T03:18:16;101911.28;;;18.87
49593;BMP280;35499;51.482;4.264;2023-08-17T03:20:41;101917.41;;;18.85
49593;BMP280;35499;51.482;4.264;2023-08-17T03:23:06;101909.72;;;18.82
49593;BMP280;35499;51.482;4.264;2023-08-17T03:25:33;101907.16;;;18.81
49593;BMP280;35499;51.482;4.264;2023-08-17T03:27:59;101909.75;;;18.81
49593;BMP280;35499;51.482;4.264;2023-08-17T03:30:24;101909.78;;;18.79
49593;BMP280;35499;51.482;4.264;2023-08-17T03:32:49;101907.25;;;18.78
49593;BMP280;35499;51.482;4.264;2023-08-17T03:35:14;101909.94;;;18.75
49593;BMP280;35499;51.482;4.264;2023-08-17T03:37:39;101908.31;;;18.71
49593;BMP280;35499;51.482;4.264;2023-08-17T03:40:05;101908.41;;;18.68
49593;BMP280;35499;51.482;4.264;2023-08-17T03:42:30;101907.63;;;18.64
49593;BMP280;35499;51.482;4.264;2023-08-17T03:44:56;101906.00;;;18.61
49593;BMP280;35499;51.482;4.264;2023-08-17T03:47:21;101898.25;;;18.59
49593;BMP280;35499;51.482;4.264;2023-08-17T03:49:46;101895.78;;;18.55
49593;BMP280;35499;51.482;4.264;2023-08-17T03:52:12;101893.28;;;18.52
49593;BMP280;35499;51.482;4.264;2023-08-17T03:54:37;101895.19;;;18.45
49593;BMP280;35499;51.482;4.264;2023-08-17T03:57:02;101899.72;;;18.39
49593;BMP280;35499;51.482;4.264;2023-08-17T03:59:27;101905.16;;;18.32
49593;BMP280;35499;51.482;4.264;2023-08-17T04:01:53;101901.84;;;18.26
49593;BMP280;35499;51.482;4.264;2023-08-17T04:04:18;101907.22;;;18.20
49593;BMP280;35499;51.482;4.264;2023-08-17T04:06:43;101910.06;;;18.12
49593;BMP280;35499;51.482;4.264;2023-08-17T04:09:08;101912.81;;;18.07
49593;BMP280;35499;51.482;4.264;2023-08-17T04:11:37;101922.50;;;18.02
49593;BMP280;35499;51.482;4.264;2023-08-17T04:14:02;101920.91;;;17.96
49593;BMP280;35499;51.482;4.264;2023-08-17T04:16:28;101921.94;;;17.91
49593;BMP280;35499;51.482;4.264;2023-08-17T04:18:53;101926.38;;;17.86
49593;BMP280;35499;51.482;4.264;2023-08-17T04:21:18;101924.78;;;17.82
49593;BMP280;35499;51.482;4.264;2023-08-17T04:23:43;101930.06;;;17.78
49593;BMP280;35499;51.482;4.264;2023-08-17T04:26:09;101924.94;;;17.73
49593;BMP280;35499;51.482;4.264;2023-08-17T04:28:34;101925.03;;;17.71
49593;BMP280;35499;51.482;4.264;2023-08-17T04:30:59;101929.41;;;17.69
49593;BMP280;35499;51.482;4.264;2023-08-17T04:33:24;101934.66;;;17.67
49593;BMP280;35499;51.482;4.264;2023-08-17T04:35:49;101934.72;;;17.64
49593;BMP280;35499;51.482;4.264;2023-08-17T04:38:14;101927.81;;;17.63
49593;BMP280;35499;51.482;4.264;2023-08-17T04:40:40;101928.69;;;17.64
49593;BMP280;35499;51.482;4.264;2023-08-17T04:43:05;101934.72;;;17.64
49593;BMP280;35499;51.482;4.264;2023-08-17T04:45:30;101938.06;;;17.69
49593;BMP280;35499;51.482;4.264;2023-08-17T04:47:55;101940.53;;;17.73
49593;BMP280;35499;51.482;4.264;2023-08-17T04:50:20;101942.19;;;17.77
49593;BMP280;35499;51.482;4.264;2023-08-17T04:52:46;101940.34;;;17.81
49593;BMP280;35499;51.482;4.264;2023-08-17T04:55:12;101940.31;;;17.84
49593;BMP280;35499;51.482;4.264;2023-08-17T04:57:38;101939.38;;;17.86
49593;BMP280;35499;51.482;4.264;2023-08-17T05:00:03;101932.34;;;17.90
49593;BMP280;35499;51.482;4.264;2023-08-17T05:02:29;101941.84;;;17.92
49593;BMP280;35499;51.482;4.264;2023-08-17T05:04:55;101952.22;;;17.92
49593;BMP280;35499;51.482;4.264;2023-08-17T05:07:20;101947.91;;;17.91
49593;BMP280;35499;51.482;4.264;2023-08-17T05:09:46;101949.63;;;17.92
49593;BMP280;35499;51.482;4.264;2023-08-17T05:12:11;101945.22;;;17.94
49593;BMP280;35499;51.482;4.264;2023-08-17T05:14:36;101949.41;;;17.99
49593;BMP280;35499;51.482;4.264;2023-08-17T05:17:01;101949.38;;;18.01
49593;BMP280;35499;51.482;4.264;2023-08-17T05:19:27;101939.81;;;18.03
49593;BMP280;35499;51.482;4.264;2023-08-17T05:21:52;101950.22;;;18.03
49593;BMP280;35499;51.482;4.264;2023-08-17T05:24:18;101937.13;;;18.04
49593;BMP280;35499;51.482;4.264;2023-08-17T05:26:45;101946.63;;;18.07
49593;BMP280;35499;51.482;4.264;2023-08-17T05:29:10;101944.03;;;18.07
49593;BMP280;35499;51.482;4.264;2023-08-17T05:31:36;101949.09;;;18.11
49593;BMP280;35499;51.482;4.264;2023-08-17T05:34:01;101946.38;;;18.15
49593;BMP280;35499;51.482;4.264;2023-08-17T05:36:26;101954.91;;;18.20
49593;BMP280;35499;51.482;4.264;2023-08-17T05:38:51;101953.03;;;18.25
49593;BMP280;35499;51.482;4.264;2023-08-17T05:41:17;101942.56;;;18.28
49593;BMP280;35499;51.482;4.264;2023-08-17T05:43:42;101947.66;;;18.31
49593;BMP280;35499;51.482;4.264;2023-08-17T05:46:07;101947.66;;;18.31
49593;BMP280;35499;51.482;4.264;2023-08-17T05:48:33;101932.94;;;18.30
49593;BMP280;35499;51.482;4.264;2023-08-17T05:50:58;101939.13;;;18.26
49593;BMP280;35499;51.482;4.264;2023-08-17T05:53:23;101940.84;;;18.27
49593;BMP280;35499;51.482;4.264;2023-08-17T05:55:49;101942.47;;;18.31
49593;BMP280;35499;51.482;4.264;2023-08-17T05:58:14;101944.94;;;18.35
49593;BMP280;35499;51.482;4.264;2023-08-17T06:00:39;101941.19;;;18.44
49593;BMP280;35499;51.482;4.264;2023-08-17T06:03:04;101944.47;;;18.51
49593;BMP280;35499;51.482;4.264;2023-08-17T06:05:30;101946.81;;;18.59
49593;BMP280;35499;51.482;4.264;2023-08-17T06:07:55;101948.50;;;18.61
49593;BMP280;35499;51.482;4.264;2023-08-17T06:10:21;101941.31;;;18.69
49593;BMP280;35499;51.482;4.264;2023-08-17T06:12:50;101940.31;;;18.74
49593;BMP280;35499;51.482;4.264;2023-08-17T06:15:15;101942.56;;;18.86
49593;BMP280;35499;51.482;4.264;2023-08-17T06:17:41;101931.72;;;18.99
49593;BMP280;35499;51.482;4.264;2023-08-17T06:20:07;101935.22;;;18.98
49593;BMP280;35499;51.482;4.264;2023-08-17T06:22:34;101935.31;;;18.95
49593;BMP280;35499;51.482;4.264;2023-08-17T06:25:00;101938.03;;;18.92
49593;BMP280;35499;51.482;4.264;2023-08-17T06:27:25;101945.84;;;18.92
49593;BMP280;35499;51.482;4.264;2023-08-17T06:29:50;101948.31;;;18.97
49593;BMP280;35499;51.482;4.264;2023-08-17T06:32:16;101938.47;;;19.06
49593;BMP280;35499;51.482;4.264;2023-08-17T06:34:41;101945.06;;;19.16
49593;BMP280;35499;51.482;4.264;2023-08-17T06:37:06;101948.22;;;19.26
49593;BMP280;35499;51.482;4.264;2023-08-17T06:39:32;101944.00;;;19.48
49593;BMP280;35499;51.482;4.264;2023-08-17T06:41:57;101946.63;;;19.73
49593;BMP280;35499;51.482;4.264;2023-08-17T06:44:22;101936.31;;;19.94
49593;BMP280;35499;51.482;4.264;2023-08-17T06:46:48;101936.28;;;20.19
49593;BMP280;35499;51.482;4.264;2023-08-17T06:49:13;101921.84;;;20.78
49593;BMP280;35499;51.482;4.264;2023-08-17T06:51:38;101932.72;;;21.53
49593;BMP280;35499;51.482;4.264;2023-08-17T06:54:04;101920.44;;;22.33
49593;BMP280;35499;51.482;4.264;2023-08-17T06:56:29;101917.44;;;23.13
49593;BMP280;35499;51.482;4.264;2023-08-17T06:58:55;101909.84;;;23.77
49593;BMP280;35499;51.482;4.264;2023-08-17T07:01:20;101907.31;;;24.25
49593;BMP280;35499;51.482;4.264;2023-08-17T07:03:45;101909.69;;;24.76
49593;BMP280;35499;51.482;4.264;2023-08-17T07:06:10;101905.56;;;25.32
49593;BMP280;35499;51.482;4.264;2023-08-17T07:08:35;101906.63;;;25.72
49593;BMP280;35499;51.482;4.264;2023-08-17T07:11:01;101905.13;;;26.53
49593;BMP280;35499;51.482;4.264;2023-08-17T07:13:26;101897.31;;;26.91
49593;BMP280;35499;51.482;4.264;2023-08-17T07:15:52;101900.94;;;27.29
49593;BMP280;35499;51.482;4.264;2023-08-17T07:18:17;101897.94;;;27.47
49593;BMP280;35499;51.482;4.264;2023-08-17T07:20:42;101900.97;;;27.80
49593;BMP280;35499;51.482;4.264;2023-08-17T07:23:08;101899.53;;;27.88
49593;BMP280;35499;51.482;4.264;2023-08-17T07:25:33;101896.81;;;27.89
49593;BMP280;35499;51.482;4.264;2023-08-17T07:27:58;101889.09;;;27.99
49593;BMP280;35499;51.482;4.264;2023-08-17T07:30:24;101887.72;;;28.18
49593;BMP280;35499;51.482;4.264;2023-08-17T07:32:49;101891.72;;;28.59
49593;BMP280;35499;51.482;4.264;2023-08-17T07:35:14;101890.63;;;28.86
49593;BMP280;35499;51.482;4.264;2023-08-17T07:37:40;101890.94;;;28.94
49593;BMP280;35499;51.482;4.264;2023-08-17T07:40:06;101902.16;;;28.97
49593;BMP280;35499;51.482;4.264;2023-08-17T07:42:32;101896.34;;;28.92
49593;BMP280;35499;51.482;4.264;2023-08-17T07:44:58;101898.94;;;28.57
49593;BMP280;35499;51.482;4.264;2023-08-17T07:47:23;101891.72;;;28.11
49593;BMP280;35499;51.482;4.264;2023-08-17T07:49:48;101909.00;;;27.66
49593;BMP280;35499;51.482;4.264;2023-08-17T07:52:14;101903.34;;;27.84
49593;BMP280;35499;51.482;4.264;2023-08-17T07:54:39;101905.88;;;28.10
49593;BMP280;35499;51.482;4.264;2023-08-17T07:57:04;101898.63;;;28.25
49593;BMP280;35499;51.482;4.264;2023-08-17T07:59:29;101896.09;;;28.36
49593;BMP280;35499;51.482;4.264;2023-08-17T08:01:55;101902.66;;;28.31
49593;BMP280;35499;51.482;4.264;2023-08-17T08:04:21;101894.25;;;28.00
49593;BMP280;35499;51.482;4.264;2023-08-17T08:06:46;101907.88;;;27.56
49593;BMP280;35499;51.482;4.264;2023-08-17T08:09:12;101903.63;;;27.02
49593;BMP280;35499;51.482;4.264;2023-08-17T08:11:37;101908.88;;;26.49
49593;BMP280;35499;51.482;4.264;2023-08-17T08:14:03;101906.94;;;26.10
49593;BMP280;35499;51.482;4.264;2023-08-17T08:16:28;101900.00;;;26.09
49593;BMP280;35499;51.482;4.264;2023-08-17T08:18:57;101911.31;;;26.25
49593;BMP280;35499;51.482;4.264;2023-08-17T08:21:22;101898.31;;;26.63
49593;BMP280;35499;51.482;4.264;2023-08-17T08:23:47;101894.91;;;26.88
49593;BMP280;35499;51.482;4.264;2023-08-17T08:26:13;101895.28;;;27.22
49593;BMP280;35499;51.482;4.264;2023-08-17T08:28:39;101888.34;;;27.84
49593;BMP280;35499;51.482;4.264;2023-08-17T08:31:04;101882.41;;;28.66
49593;BMP280;35499;51.482;4.264;2023-08-17T08:33:30;101881.91;;;28.96
49593;BMP280;35499;51.482;4.264;2023-08-17T08:35:55;101884.16;;;28.90
49593;BMP280;35499;51.482;4.264;2023-08-17T08:38:21;101874.88;;;28.60
49593;BMP280;35499;51.482;4.264;2023-08-17T08:40:47;101880.66;;;28.30
49593;BMP280;35499;51.482;4.264;2023-08-17T08:43:13;101884.13;;;28.43
49593;BMP280;35499;51.482;4.264;2023-08-17T08:45:41;101877.97;;;28.67
49593;BMP280;35499;51.482;4.264;2023-08-17T08:48:08;101884.72;;;28.71
49593;BMP280;35499;51.482;4.264;2023-08-17T08:50:35;101872.44;;;28.82
49593;BMP280;35499;51.482;4.264;2023-08-17T08:53:02;101862.47;;;29.43
49593;BMP280;35499;51.482;4.264;2023-08-17T08:55:35;101861.22;;;30.25
49593;BMP280;35499;51.482;4.264;2023-08-17T08:58:02;101856.38;;;31.05
49593;BMP280;35499;51.482;4.264;2023-08-17T09:04:35;101839.28;;;31.59
49593;BMP280;35499;51.482;4.264;2023-08-17T09:07:01;101836.47;;;31.91
49593;BMP280;35499;51.482;4.264;2023-08-17T09:09:26;101832.25;;;31.89
49593;BMP280;35499;51.482;4.264;2023-08-17T09:11:52;101839.13;;;31.41
49593;BMP280;35499;51.482;4.264;2023-08-17T09:14:17;101842.66;;;31.81
49593;BMP280;35499;51.482;4.264;2023-08-17T09:16:42;101841.28;;;31.46
49593;BMP280;35499;51.482;4.264;2023-08-17T09:19:08;101834.41;;;31.84
49593;BMP280;35499;51.482;4.264;2023-08-17T09:21:33;101833.00;;;31.60
49593;BMP280;35499;51.482;4.264;2023-08-17T09:23:58;101833.34;;;32.06
49593;BMP280;35499;51.482;4.264;2023-08-17T09:26:24;101830.34;;;32.58
49593;BMP280;35499;51.482;4.264;2023-08-17T09:28:50;101815.47;;;32.94
49593;BMP280;35499;51.482;4.264;2023-08-17T09:31:16;101816.44;;;32.93
49593;BMP280;35499;51.482;4.264;2023-08-17T09:33:49;101823.22;;;32.97
49593;BMP280;35499;51.482;4.264;2023-08-17T09:36:14;101816.34;;;33.04
49593;BMP280;35499;51.482;4.264;2023-08-17T09:38:39;101812.25;;;32.23
49593;BMP280;35499;51.482;4.264;2023-08-17T09:41:06;101815.66;;;32.25
49593;BMP280;35499;51.482;4.264;2023-08-17T09:43:31;101820.88;;;31.16
49593;BMP280;35499;51.482;4.264;2023-08-17T09:45:59;101828.41;;;30.79
49593;BMP280;35499;51.482;4.264;2023-08-17T09:48:26;101829.56;;;30.13
49593;BMP280;35499;51.482;4.264;2023-08-17T09:50:56;101843.09;;;29.43
49593;BMP280;35499;51.482;4.264;2023-08-17T09:53:22;101840.16;;;28.89
49593;BMP280;35499;51.482;4.264;2023-08-17T09:55:47;101839.91;;;28.57
49593;BMP280;35499;51.482;4.264;2023-08-17T09:58:13;101837.59;;;27.92
49593;BMP280;35499;51.482;4.264;2023-08-17T10:00:47;101841.22;;;27.79
49593;BMP280;35499;51.482;4.264;2023-08-17T10:03:14;101850.03;;;27.65
49593;BMP280;35499;51.482;4.264;2023-08-17T10:05:40;101853.81;;;27.49
49593;BMP280;35499;51.482;4.264;2023-08-17T10:08:07;101854.75;;;27.61
49593;BMP280;35499;51.482;4.264;2023-08-17T10:10:35;101839.09;;;27.83
49593;BMP280;35499;51.482;4.264;2023-08-17T10:13:15;101838.34;;;27.82
49593;BMP280;35499;51.482;4.264;2023-08-17T10:15:55;101835.06;;;27.90
49593;BMP280;35499;51.482;4.264;2023-08-17T10:18:31;101826.84;;;27.83
49593;BMP280;35499;51.482;4.264;2023-08-17T10:21:02;101818.34;;;27.65
49593;BMP280;35499;51.482;4.264;2023-08-17T10:23:30;101828.81;;;27.67
49593;BMP280;35499;51.482;4.264;2023-08-17T10:25:55;101822.19;;;27.74
49593;BMP280;35499;51.482;4.264;2023-08-17T10:28:22;101823.75;;;27.76
49593;BMP280;35499;51.482;4.264;2023-08-17T10:30:47;101826.09;;;27.93
49593;BMP280;35499;51.482;4.264;2023-08-17T10:33:14;101823.38;;;28.19
49593;BMP280;35499;51.482;4.264;2023-08-17T10:35:40;101816.34;;;28.42
49593;BMP280;35499;51.482;4.264;2023-08-17T10:38:05;101821.56;;;28.66
49593;BMP280;35499;51.482;4.264;2023-08-17T10:40:40;101818.94;;;28.78
49593;BMP280;35499;51.482;4.264;2023-08-17T10:43:06;101821.91;;;28.74
49593;BMP280;35499;51.482;4.264;2023-08-17T10:45:33;101823.56;;;28.75
49593;BMP280;35499;51.482;4.264;2023-08-17T10:48:24;101825.25;;;28.76
49593;BMP280;35499;51.482;4.264;2023-08-17T10:51:05;101827.22;;;28.50
49593;BMP280;35499;51.482;4.264;2023-08-17T10:53:35;101825.97;;;28.31
49593;BMP280;35499;51.482;4.264;2023-08-17T10:56:01;101834.66;;;28.20
49593;BMP280;35499;51.482;4.264;2023-08-17T10:58:30;101821.25;;;27.99
49593;BMP280;35499;51.482;4.264;2023-08-17T11:00:57;101812.47;;;27.86
49593;BMP280;35499;51.482;4.264;2023-08-17T11:03:22;101809.72;;;27.64
49593;BMP280;35499;51.482;4.264;2023-08-17T11:05:53;101825.91;;;27.46
49593;BMP280;35499;51.482;4.264;2023-08-17T11:08:38;101824.09;;;27.34
49593;BMP280;35499;51.482;4.264;2023-08-17T11:11:11;101823.56;;;27.29
49593;BMP280;35499;51.482;4.264;2023-08-17T11:13:41;101824.31;;;27.05
49593;BMP280;35499;51.482;4.264;2023-08-17T11:16:07;101832.63;;;26.86
49593;BMP280;35499;51.482;4.264;2023-08-17T11:18:33;101821.06;;;26.49
49593;BMP280;35499;51.482;4.264;2023-08-17T11:21:03;101826.03;;;26.26
49593;BMP280;35499;51.482;4.264;2023-08-17T11:23:29;101825.69;;;26.04
49593;BMP280;35499;51.482;4.264;2023-08-17T11:25:55;101826.34;;;25.94
49593;BMP280;35499;51.482;4.264;2023-08-17T11:28:21;101827.34;;;25.92
49593;BMP280;35499;51.482;4.264;2023-08-17T11:30:59;101813.66;;;25.72
49593;BMP280;35499;51.482;4.264;2023-08-17T11:33:29;101829.72;;;25.54
49593;BMP280;35499;51.482;4.264;2023-08-17T11:35:55;101827.72;;;25.44
49593;BMP280;35499;51.482;4.264;2023-08-17T11:38:20;101828.53;;;25.15
49593;BMP280;35499;51.482;4.264;2023-08-17T11:40:46;101833.66;;;25.32
49593;BMP280;35499;51.482;4.264;2023-08-17T11:43:11;101837.94;;;25.34
49593;BMP280;35499;51.482;4.264;2023-08-17T11:45:36;101829.47;;;25.30
49593;BMP280;35499;51.482;4.264;2023-08-17T11:48:02;101843.19;;;25.19
49593;BMP280;35499;51.482;4.264;2023-08-17T11:50:28;101831.16;;;25.15
49593;BMP280;35499;51.482;4.264;2023-08-17T11:52:54;101831.25;;;25.14
49593;BMP280;35499;51.482;4.264;2023-08-17T11:55:19;101841.59;;;25.02
49593;BMP280;35499;51.482;4.264;2023-08-17T11:57:45;101837.19;;;24.87
49593;BMP280;35499;51.482;4.264;2023-08-17T12:00:17;101835.44;;;24.73
49593;BMP280;35499;51.482;4.264;2023-08-17T12:02:46;101835.69;;;24.68
49593;BMP280;35499;51.482;4.264;2023-08-17T12:05:12;101835.56;;;24.55
49593;BMP280;35499;51.482;4.264;2023-08-17T12:07:37;101827.25;;;24.47
49593;BMP280;35499;51.482;4.264;2023-08-17T12:10:03;101820.06;;;24.50
49593;BMP280;35499;51.482;4.264;2023-08-17T12:12:29;101828.06;;;24.64
49593;BMP280;35499;51.482;4.264;2023-08-17T12:14:56;101823.06;;;24.75
49593;BMP280;35499;51.482;4.264;2023-08-17T12:17:22;101827.97;;;24.80
49593;BMP280;35499;51.482;4.264;2023-08-17T12:19:54;101833.38;;;24.93
49593;BMP280;35499;51.482;4.264;2023-08-17T12:22:23;101827.59;;;25.01
49593;BMP280;35499;51.482;4.264;2023-08-17T12:24:49;101823.88;;;25.05
49593;BMP280;35499;51.482;4.264;2023-08-17T12:27:14;101821.06;;;25.08
49593;BMP280;35499;51.482;4.264;2023-08-17T12:29:49;101826.31;;;25.08
49593;BMP280;35499;51.482;4.264;2023-08-17T12:32:18;101820.13;;;25.09
49593;BMP280;35499;51.482;4.264;2023-08-17T12:34:45;101822.53;;;24.98
49593;BMP280;35499;51.482;4.264;2023-08-17T12:37:11;101827.63;;;24.86
49593;BMP280;35499;51.482;4.264;2023-08-17T12:39:37;101820.59;;;24.72
49593;BMP280;35499;51.482;4.264;2023-08-17T12:42:04;101824.59;;;24.63
49593;BMP280;35499;51.482;4.264;2023-08-17T12:44:29;101823.13;;;24.58
49593;BMP280;35499;51.482;4.264;2023-08-17T12:46:55;101823.38;;;24.54
49593;BMP280;35499;51.482;4.264;2023-08-17T12:49:20;101828.81;;;24.51
49593;BMP280;35499;51.482;4.264;2023-08-17T12:51:45;101837.47;;;24.36
49593;BMP280;35499;51.482;4.264;2023-08-17T12:54:11;101828.66;;;24.22
49593;BMP280;35499;51.482;4.264;2023-08-17T12:56:36;101828.88;;;24.03
49593;BMP280;35499;51.482;4.264;2023-08-17T12:59:01;101829.97;;;23.82
49593;BMP280;35499;51.482;4.264;2023-08-17T13:01:26;101839.53;;;23.67
49593;BMP280;35499;51.482;4.264;2023-08-17T13:03:52;101841.88;;;23.56
49593;BMP280;35499;51.482;4.264;2023-08-17T13:06:17;101836.78;;;23.53
49593;BMP280;35499;51.482;4.264;2023-08-17T13:08:42;101836.84;;;23.51
49593;BMP280;35499;51.482;4.264;2023-08-17T13:11:08;101831.84;;;23.47
49593;BMP280;35499;51.482;4.264;2023-08-17T13:13:33;101834.63;;;23.44
49593;BMP280;35499;51.482;4.264;2023-08-17T13:15:58;101833.00;;;23.42
49593;BMP280;35499;51.482;4.264;2023-08-17T13:18:25;101829.44;;;23.43
49593;BMP280;35499;51.482;4.264;2023-08-17T13:20:50;101825.06;;;23.43
49593;BMP280;35499;51.482;4.264;2023-08-17T13:23:15;101827.69;;;23.43
49593;BMP280;35499;51.482;4.264;2023-08-17T13:25:41;101821.53;;;23.44
49593;BMP280;35499;51.482;4.264;2023-08-17T13:28:06;101818.28;;;23.39
49593;BMP280;35499;51.482;4.264;2023-08-17T13:30:31;101816.50;;;23.40
49593;BMP280;35499;51.482;4.264;2023-08-17T13:32:57;101820.84;;;23.41
49593;BMP280;35499;51.482;4.264;2023-08-17T13:35:22;101821.44;;;23.46
49593;BMP280;35499;51.482;4.264;2023-08-17T13:37:53;101821.28;;;23.49
49593;BMP280;35499;51.482;4.264;2023-08-17T13:40:19;101818.47;;;23.51
49593;BMP280;35499;51.482;4.264;2023-08-17T13:42:44;101814.88;;;23.54
49593;BMP280;35499;51.482;4.264;2023-08-17T13:45:09;101825.44;;;23.52
49593;BMP280;35499;51.482;4.264;2023-08-17T13:47:35;101821.44;;;23.46
49593;BMP280;35499;51.482;4.264;2023-08-17T13:50:00;101827.75;;;23.42
49593;BMP280;35499;51.482;4.264;2023-08-17T13:52:25;101832.31;;;23.38
49593;BMP280;35499;51.482;4.264;2023-08-17T13:54:51;101834.16;;;23.36